createdAt,value
2018-05-01T00:00:17.025Z,83.45
2018-05-01T00:02:45.189Z,82.95
2018-05-01T00:05:13.370Z,82.70
2018-05-01T00:07:41.535Z,82.32
2018-05-01T00:10:09.712Z,81.75
2018-05-01T00:12:37.860Z,81.85
2018-05-01T00:15:06.044Z,81.61
2018-05-01T00:17:34.225Z,82.41
2018-05-01T00:20:02.393Z,82.97
2018-05-01T00:22:30.568Z,83.25
2018-05-01T00:24:58.741Z,83.79
2018-05-01T00:27:26.931Z,82.75
2018-05-01T00:29:55.084Z,82.40
2018-05-01T00:32:23.273Z,82.54
2018-05-01T00:34:51.393Z,82.74
2018-05-01T00:37:19.565Z,82.44
2018-05-01T00:39:47.738Z,82.03
2018-05-01T00:42:15.894Z,83.46
2018-05-01T00:44:44.032Z,82.30
2018-05-01T00:47:12.199Z,83.27
2018-05-01T00:49:40.475Z,83.56
2018-05-01T00:52:09.538Z,84.34
2018-05-01T00:54:37.761Z,84.17
2018-05-01T00:57:05.874Z,83.75
2018-05-01T00:59:34.038Z,84.05
2018-05-01T01:02:02.174Z,83.07
2018-05-01T01:04:30.373Z,83.39
2018-05-01T01:06:58.510Z,83.12
2018-05-01T01:09:26.678Z,82.38
2018-05-01T01:11:54.845Z,81.65
2018-05-01T01:14:23.033Z,81.58
2018-05-01T01:16:51.185Z,81.01
2018-05-01T01:19:19.338Z,81.46
2018-05-01T01:21:47.508Z,80.93
2018-05-01T01:24:15.784Z,81.49
2018-05-01T01:26:43.886Z,81.37
2018-05-01T01:29:12.058Z,82.93
2018-05-01T01:31:40.227Z,81.90
2018-05-01T01:34:08.374Z,82.72
2018-05-01T01:36:35.526Z,83.18
2018-05-01T01:39:02.644Z,82.55
2018-05-01T01:41:29.776Z,82.13
2018-05-01T01:43:57.030Z,82.19
2018-05-01T01:46:24.175Z,81.55
2018-05-01T01:48:51.295Z,82.17
2018-05-01T01:51:18.431Z,81.82
2018-05-01T01:53:45.575Z,82.72
2018-05-01T01:56:12.697Z,82.55
2018-05-01T01:58:39.852Z,82.94
2018-05-01T02:01:06.999Z,82.45
2018-05-01T02:03:34.130Z,82.09
2018-05-01T02:06:01.256Z,81.55
2018-05-01T02:08:28.399Z,81.96
2018-05-01T02:10:55.561Z,82.95
2018-05-01T02:13:22.675Z,82.88
2018-05-01T02:15:49.813Z,82.18
2018-05-01T02:18:16.949Z,82.25
2018-05-01T02:20:44.073Z,82.64
2018-05-01T02:23:11.201Z,82.39
2018-05-01T02:25:38.332Z,82.90
2018-05-01T02:28:05.483Z,83.39
2018-05-01T02:30:32.687Z,83.10
2018-05-01T02:32:59.756Z,84.23
2018-05-01T02:35:26.919Z,83.37
2018-05-01T02:37:54.036Z,82.66
2018-05-01T02:40:21.147Z,82.50
2018-05-01T02:42:48.282Z,82.56
2018-05-01T02:45:15.428Z,82.67
2018-05-01T02:47:42.561Z,83.46
2018-05-01T02:50:09.687Z,83.30
2018-05-01T02:52:36.853Z,82.54
2018-05-01T02:55:03.990Z,82.86
2018-05-01T02:57:31.097Z,82.70
2018-05-01T02:59:58.226Z,82.06
2018-05-01T03:02:25.389Z,82.47
2018-05-01T03:04:52.539Z,82.49
2018-05-01T03:07:19.670Z,83.04
2018-05-01T03:09:46.901Z,82.54
2018-05-01T03:12:13.958Z,82.71
2018-05-01T03:14:41.098Z,82.80
2018-05-01T03:17:08.256Z,82.13
2018-05-01T03:19:35.380Z,82.09
2018-05-01T03:22:02.490Z,82.24
2018-05-01T03:24:29.633Z,82.12
2018-05-01T03:26:56.782Z,82.63
2018-05-01T03:29:26.614Z,82.45
2018-05-01T03:31:53.734Z,82.30
2018-05-01T03:34:20.893Z,82.78
2018-05-01T03:36:48.033Z,83.09
2018-05-01T03:39:15.229Z,82.32
2018-05-01T03:41:42.329Z,82.34
2018-05-01T03:44:09.460Z,82.44
2018-05-01T03:46:36.613Z,82.41
2018-05-01T03:49:03.834Z,83.13
2018-05-01T03:51:30.975Z,82.96
2018-05-01T03:53:58.121Z,82.57
2018-05-01T03:56:25.241Z,82.82
2018-05-01T03:58:52.378Z,82.86
2018-05-01T04:01:19.524Z,82.50
2018-05-01T04:03:46.678Z,82.31
2018-05-01T04:06:13.816Z,82.56
2018-05-01T04:08:40.969Z,83.04
2018-05-01T04:11:08.177Z,82.42
2018-05-01T04:13:35.314Z,82.37
2018-05-01T04:16:02.453Z,82.07
2018-05-01T04:18:29.590Z,82.00
2018-05-01T04:20:56.741Z,82.17
2018-05-01T04:23:23.869Z,81.75
2018-05-01T04:25:51.030Z,82.39
2018-05-01T04:28:18.148Z,82.26
2018-05-01T04:30:45.290Z,82.29
2018-05-01T04:33:12.421Z,82.20
2018-05-01T04:35:39.559Z,82.05
2018-05-01T04:38:06.686Z,82.03
2018-05-01T04:40:33.837Z,82.03
2018-05-01T04:43:00.987Z,82.16
2018-05-01T04:45:28.099Z,82.20
2018-05-01T04:47:55.261Z,82.29
2018-05-01T04:50:22.406Z,82.27
2018-05-01T04:52:49.580Z,81.80
2018-05-01T04:55:16.696Z,81.28
2018-05-01T04:57:43.892Z,81.95
2018-05-01T05:00:10.982Z,81.45
2018-05-01T05:02:38.093Z,81.02
2018-05-01T05:05:05.223Z,81.44
2018-05-01T05:07:32.356Z,81.06
2018-05-01T05:09:59.489Z,81.40
2018-05-01T05:12:26.634Z,81.03
2018-05-01T05:14:53.779Z,81.01
2018-05-01T05:17:20.882Z,81.12
2018-05-01T05:19:48.013Z,81.34
2018-05-01T05:22:15.178Z,82.17
2018-05-01T05:24:42.333Z,81.59
2018-05-01T05:27:09.499Z,81.01
2018-05-01T05:29:36.646Z,81.14
2018-05-01T05:32:03.789Z,80.75
2018-05-01T05:34:30.922Z,80.55
2018-05-01T05:36:58.055Z,80.06
2018-05-01T05:39:25.264Z,80.88
2018-05-01T05:41:52.380Z,80.63
2018-05-01T05:44:19.494Z,80.52
2018-05-01T05:46:46.628Z,80.21
2018-05-01T05:49:13.799Z,79.96
2018-05-01T05:51:40.929Z,80.17
2018-05-01T05:54:08.097Z,79.94
2018-05-01T05:56:35.247Z,80.03
2018-05-01T05:59:02.393Z,79.73
2018-05-01T06:01:29.544Z,79.60
2018-05-01T06:03:56.717Z,79.43
2018-05-01T06:06:23.866Z,80.24
2018-05-01T06:08:51.069Z,79.96
2018-05-01T06:11:18.276Z,79.33
2018-05-01T06:13:45.514Z,79.57
2018-05-01T06:16:12.550Z,79.36
2018-05-01T06:18:39.700Z,79.46
2018-05-01T06:21:06.853Z,79.41
2018-05-01T06:23:33.996Z,79.32
2018-05-01T06:26:01.123Z,79.59
2018-05-01T06:28:28.280Z,79.41
2018-05-01T06:30:55.424Z,79.28
2018-05-01T06:33:22.621Z,80.10
2018-05-01T06:35:49.674Z,79.92
2018-05-01T06:38:16.833Z,79.04
2018-05-01T06:40:43.973Z,78.79
2018-05-01T06:43:11.107Z,79.11
2018-05-01T06:45:38.380Z,79.27
2018-05-01T06:48:05.529Z,78.85
2018-05-01T06:50:32.636Z,78.79
2018-05-01T06:52:59.767Z,78.75
2018-05-01T06:55:26.930Z,78.79
2018-05-01T06:57:54.081Z,78.06
2018-05-01T07:00:21.263Z,78.61
2018-05-01T07:02:48.414Z,78.54
2018-05-01T07:05:15.576Z,78.29
2018-05-01T07:07:42.706Z,78.61
2018-05-01T07:10:09.907Z,79.61
2018-05-01T07:12:37.013Z,79.20
2018-05-01T07:15:04.129Z,79.29
2018-05-01T07:17:31.301Z,79.84
2018-05-01T07:19:58.450Z,78.93
2018-05-01T07:22:25.595Z,78.95
2018-05-01T07:24:52.741Z,78.96
2018-05-01T07:27:19.868Z,79.39
2018-05-01T07:29:47.008Z,79.04
2018-05-01T07:32:14.147Z,79.01
2018-05-01T07:34:41.297Z,79.09
2018-05-01T07:37:08.449Z,79.28
2018-05-01T07:39:35.702Z,79.15
2018-05-01T07:42:02.847Z,78.63
2018-05-01T07:44:29.967Z,77.99
2018-05-01T07:46:57.154Z,78.18
2018-05-01T07:49:24.298Z,78.30
2018-05-01T07:51:51.444Z,78.14
2018-05-01T07:54:18.598Z,78.14
2018-05-01T07:56:45.761Z,78.54
2018-05-01T07:59:12.920Z,78.69
2018-05-01T08:01:40.074Z,78.41
2018-05-01T08:04:07.220Z,78.38
2018-05-01T08:06:34.395Z,78.63
2018-05-01T08:09:01.697Z,78.95
2018-05-01T08:11:28.863Z,78.54
2018-05-01T08:13:55.980Z,78.00
2018-05-01T08:16:23.100Z,77.76
2018-05-01T08:18:50.262Z,77.13
2018-05-01T08:21:17.402Z,77.15
2018-05-01T08:23:44.544Z,76.95
2018-05-01T08:26:11.723Z,77.51
2018-05-01T08:28:38.848Z,77.06
2018-05-01T08:31:05.971Z,77.10
2018-05-01T08:33:33.137Z,77.85
2018-05-01T08:36:00.282Z,77.59
2018-05-01T08:38:27.435Z,78.22
2018-05-01T08:40:54.627Z,77.44
2018-05-01T08:43:21.833Z,77.54
2018-05-01T08:45:48.956Z,77.69
2018-05-01T08:48:16.089Z,77.39
2018-05-01T08:50:43.241Z,77.17
2018-05-01T08:53:11.341Z,76.98
2018-05-01T08:55:38.490Z,76.81
2018-05-01T08:58:05.851Z,76.48
2018-05-01T09:00:33.015Z,76.26
2018-05-01T09:03:00.175Z,75.54
2018-05-01T09:05:27.292Z,76.10
2018-05-01T09:07:54.462Z,75.97
2018-05-01T09:10:21.614Z,75.69
2018-05-01T09:12:48.751Z,74.85
2018-05-01T09:15:15.894Z,75.34
2018-05-01T09:17:43.032Z,74.74
2018-05-01T09:20:10.172Z,72.01
2018-05-01T09:22:37.315Z,72.07
2018-05-01T09:25:04.459Z,69.15
2018-05-01T09:27:31.634Z,68.90
2018-05-01T09:29:58.863Z,67.64
2018-05-01T09:32:26.009Z,66.23
2018-05-01T09:34:53.142Z,64.40
2018-05-01T09:37:20.308Z,61.18
2018-05-01T09:39:47.434Z,58.29
2018-05-01T09:42:14.610Z,59.36
2018-05-01T09:44:41.757Z,56.12
2018-05-01T09:47:08.916Z,54.78
2018-05-01T09:49:36.117Z,51.39
2018-05-01T09:52:03.170Z,50.09
2018-05-01T09:54:31.324Z,47.60
2018-05-01T09:56:59.517Z,45.75
2018-05-01T09:59:27.715Z,45.60
2018-05-01T10:01:56.035Z,45.75
2018-05-01T10:04:24.255Z,49.00
2018-05-01T10:06:52.424Z,48.37
2018-05-01T10:09:20.630Z,48.26
2018-05-01T10:11:48.812Z,45.45
2018-05-01T10:14:21.156Z,45.06
2018-05-01T10:16:49.326Z,45.45
2018-05-01T10:19:17.463Z,46.73
2018-05-01T10:21:45.653Z,45.58
2018-05-01T10:24:13.864Z,46.69
2018-05-01T10:26:42.050Z,48.25
2018-05-01T10:29:10.230Z,47.58
2018-05-01T10:31:38.398Z,49.72
2018-05-01T10:34:06.678Z,46.36
2018-05-01T10:36:34.859Z,45.73
2018-05-01T10:39:03.290Z,43.86
2018-05-01T10:41:31.403Z,43.68
2018-05-01T10:43:59.615Z,44.87
2018-05-01T10:46:28.095Z,47.18
2018-05-01T10:48:56.726Z,44.26
2018-05-01T10:51:24.886Z,43.05
2018-05-01T10:53:53.022Z,44.79
2018-05-01T10:56:21.211Z,44.64
2018-05-01T10:58:49.395Z,43.96
2018-05-01T11:01:17.577Z,43.79
2018-05-01T11:03:45.798Z,46.09
2018-05-01T11:06:13.977Z,45.00
2018-05-01T11:08:42.287Z,45.53
2018-05-01T11:11:10.492Z,45.86
2018-05-01T11:13:38.657Z,46.57
2018-05-01T11:16:06.877Z,45.96
2018-05-01T11:18:35.055Z,45.50
2018-05-01T11:21:03.256Z,44.14
2018-05-01T11:23:31.390Z,45.16
2018-05-01T11:25:59.650Z,44.37
2018-05-01T11:28:27.828Z,43.48
2018-05-01T11:30:55.955Z,44.19
2018-05-01T11:33:24.109Z,40.67
2018-05-01T11:35:52.287Z,41.12
2018-05-01T11:38:20.613Z,38.79
2018-05-01T11:40:48.857Z,39.10
2018-05-01T11:43:17.003Z,39.03
2018-05-01T11:45:45.150Z,39.77
2018-05-01T11:48:13.331Z,39.56
2018-05-01T11:50:41.540Z,40.09
2018-05-01T11:53:09.734Z,32.67
2018-05-01T11:55:37.927Z,33.32
2018-05-01T11:58:06.096Z,33.46
2018-05-01T12:00:34.248Z,32.24
2018-05-01T12:03:02.425Z,33.84
2018-05-01T12:05:30.544Z,35.98
2018-05-01T12:07:58.763Z,33.39
2018-05-01T12:10:27.319Z,33.70
2018-05-01T12:12:55.511Z,33.11
2018-05-01T12:15:23.664Z,33.48
2018-05-01T12:17:51.850Z,35.09
2018-05-01T12:20:20.011Z,34.65
2018-05-01T12:22:48.190Z,32.65
2018-05-01T12:25:16.357Z,33.59
2018-05-01T12:27:44.537Z,34.91
2018-05-01T12:30:12.711Z,35.04
2018-05-01T12:32:40.879Z,35.02
2018-05-01T12:35:09.047Z,34.82
2018-05-01T12:37:37.228Z,35.98
2018-05-01T12:40:05.381Z,33.10
2018-05-01T12:42:33.978Z,32.62
2018-05-01T12:45:02.139Z,32.93
2018-05-01T12:47:30.307Z,34.16
2018-05-01T12:49:58.485Z,31.99
2018-05-01T12:52:26.640Z,32.82
2018-05-01T12:54:54.883Z,32.64
2018-05-01T12:57:23.060Z,32.07
2018-05-01T12:59:51.205Z,30.74
2018-05-01T13:02:19.369Z,30.62
2018-05-01T13:04:47.527Z,30.48
2018-05-01T13:07:15.677Z,28.51
2018-05-01T13:09:43.891Z,27.61
2018-05-01T13:12:12.072Z,27.42
2018-05-01T13:14:40.242Z,29.19
2018-05-01T13:17:08.886Z,28.00
2018-05-01T13:19:37.058Z,28.46
2018-05-01T13:22:05.229Z,30.58
2018-05-01T13:24:33.378Z,29.63
2018-05-01T13:27:01.574Z,28.92
2018-05-01T13:29:29.741Z,29.50
2018-05-01T13:31:57.945Z,29.60
2018-05-01T13:34:26.105Z,29.31
2018-05-01T13:36:54.263Z,29.42
2018-05-01T13:39:22.439Z,30.44
2018-05-01T13:41:50.637Z,29.49
2018-05-01T13:44:18.889Z,28.83
2018-05-01T13:46:47.091Z,26.70
2018-05-01T13:49:15.310Z,27.69
2018-05-01T13:51:43.521Z,26.10
2018-05-01T13:54:11.682Z,25.70
2018-05-01T13:56:39.829Z,27.43
2018-05-01T13:59:08.027Z,25.43
2018-05-01T14:01:38.772Z,27.07
2018-05-01T14:04:06.986Z,26.08
2018-05-01T14:06:35.171Z,27.93
2018-05-01T14:09:03.476Z,25.39
2018-05-01T14:11:31.677Z,25.84
2018-05-01T14:13:59.868Z,27.47
2018-05-01T14:16:28.077Z,27.98
2018-05-01T14:18:56.268Z,28.25
2018-05-01T14:21:24.506Z,26.23
2018-05-01T14:23:52.749Z,26.02
2018-05-01T14:26:20.967Z,25.21
2018-05-01T14:28:49.249Z,25.44
2018-05-01T14:31:17.764Z,25.50
2018-05-01T14:33:45.908Z,26.60
2018-05-01T14:36:14.214Z,25.90
2018-05-01T14:38:42.553Z,24.93
2018-05-01T14:41:10.714Z,23.81
2018-05-01T14:43:38.890Z,24.39
2018-05-01T14:46:07.960Z,25.80
2018-05-01T14:48:36.173Z,24.27
2018-05-01T14:51:04.349Z,24.52
2018-05-01T14:53:33.411Z,26.58
2018-05-01T14:56:04.977Z,25.75
2018-05-01T14:58:35.103Z,24.82
2018-05-01T15:01:04.170Z,26.86
2018-05-01T15:03:32.578Z,25.42
2018-05-01T15:06:02.590Z,24.52
2018-05-01T15:08:39.580Z,25.71
2018-05-01T15:11:10.903Z,26.55
2018-05-01T15:13:42.158Z,26.61
2018-05-01T15:16:13.698Z,27.24
2018-05-01T15:18:45.602Z,26.47
2018-05-01T15:21:14.440Z,27.61
2018-05-01T15:23:44.011Z,27.79
2018-05-01T15:26:12.156Z,27.26
2018-05-01T15:28:40.330Z,27.20
2018-05-01T15:31:08.492Z,27.19
2018-05-01T15:33:36.652Z,27.51
2018-05-01T15:36:04.915Z,27.38
2018-05-01T15:38:33.089Z,27.29
2018-05-01T15:41:01.264Z,27.88
2018-05-01T15:43:29.423Z,28.97
2018-05-01T15:45:57.625Z,29.53
2018-05-01T15:48:25.811Z,27.65
2018-05-01T15:50:53.975Z,27.89
2018-05-01T15:53:22.137Z,29.53
2018-05-01T15:55:50.248Z,29.14
2018-05-01T15:58:18.435Z,29.00
2018-05-01T16:00:46.755Z,30.08
2018-05-01T16:03:14.823Z,28.95
2018-05-01T16:05:43.135Z,30.85
2018-05-01T16:08:11.295Z,28.30
2018-05-01T16:10:39.453Z,28.24
2018-05-01T16:13:07.620Z,29.02
2018-05-01T16:15:35.802Z,30.14
2018-05-01T16:18:03.986Z,28.73
2018-05-01T16:20:32.163Z,29.07
2018-05-01T16:23:00.350Z,28.91
2018-05-01T16:25:28.513Z,29.39
2018-05-01T16:27:56.664Z,29.42
2018-05-01T16:30:24.833Z,29.89
2018-05-01T16:32:53.005Z,29.60
2018-05-01T16:35:21.214Z,30.18
2018-05-01T16:37:49.408Z,30.67
2018-05-01T16:40:17.688Z,30.93
2018-05-01T16:42:45.735Z,30.16
2018-05-01T16:45:13.899Z,30.72
2018-05-01T16:47:42.124Z,29.12
2018-05-01T16:50:10.363Z,30.34
2018-05-01T16:52:38.476Z,30.95
2018-05-01T16:55:06.649Z,30.72
2018-05-01T16:57:35.580Z,30.59
2018-05-01T17:00:03.781Z,31.61
2018-05-01T17:02:31.944Z,29.13
2018-05-01T17:05:00.129Z,29.48
2018-05-01T17:07:28.340Z,29.17
2018-05-01T17:09:56.536Z,29.04
2018-05-01T17:12:24.693Z,29.12
2018-05-01T17:14:52.904Z,27.16
2018-05-01T17:17:21.074Z,28.69
2018-05-01T17:19:49.277Z,27.45
2018-05-01T17:22:17.478Z,28.17
2018-05-01T17:24:45.822Z,25.43
2018-05-01T17:27:13.997Z,26.69
2018-05-01T17:29:42.151Z,25.49
2018-05-01T17:32:10.651Z,25.02
2018-05-01T17:34:38.820Z,27.23
2018-05-01T17:37:06.970Z,25.74
2018-05-01T17:39:35.151Z,26.34
2018-05-01T17:42:03.359Z,28.26
2018-05-01T17:44:31.527Z,27.74
2018-05-01T17:46:59.720Z,29.09
2018-05-01T17:49:27.864Z,28.33
2018-05-01T17:51:56.011Z,27.07
2018-05-01T17:54:24.214Z,29.26
2018-05-01T17:56:52.386Z,26.96
2018-05-01T17:59:20.598Z,27.36
2018-05-01T18:01:48.770Z,27.93
2018-05-01T18:04:16.944Z,27.60
2018-05-01T18:06:45.262Z,28.27
2018-05-01T18:09:13.455Z,27.37
2018-05-01T18:11:41.625Z,27.82
2018-05-01T18:14:09.890Z,28.50
2018-05-01T18:16:38.077Z,29.57
2018-05-01T18:19:06.249Z,29.18
2018-05-01T18:21:34.487Z,30.76
2018-05-01T18:24:02.668Z,30.04
2018-05-01T18:26:30.865Z,29.84
2018-05-01T18:28:59.032Z,31.50
2018-05-01T18:31:27.182Z,31.21
2018-05-01T18:33:55.352Z,33.36
2018-05-01T18:36:23.601Z,33.33
2018-05-01T18:38:51.719Z,33.52
2018-05-01T18:41:20.059Z,34.48
2018-05-01T18:43:48.511Z,34.92
2018-05-01T18:46:16.753Z,33.72
2018-05-01T18:48:44.932Z,34.82
2018-05-01T18:51:13.238Z,35.17
2018-05-01T18:53:41.402Z,35.60
2018-05-01T18:56:09.572Z,35.75
2018-05-01T18:58:37.808Z,35.79
2018-05-01T19:01:05.959Z,37.86
2018-05-01T19:03:34.131Z,38.44
2018-05-01T19:06:02.340Z,39.38
2018-05-01T19:08:30.515Z,39.88
2018-05-01T19:10:58.702Z,40.97
2018-05-01T19:13:26.892Z,41.33
2018-05-01T19:15:55.061Z,42.91
2018-05-01T19:18:23.325Z,45.59
2018-05-01T19:20:51.506Z,44.56
2018-05-01T19:23:19.781Z,45.52
2018-05-01T19:25:47.940Z,43.27
2018-05-01T19:28:16.094Z,42.88
2018-05-01T19:30:44.271Z,42.68
2018-05-01T19:33:12.852Z,43.06
2018-05-01T19:35:41.026Z,44.35
2018-05-01T19:38:09.249Z,45.80
2018-05-01T19:40:37.423Z,47.12
2018-05-01T19:43:05.619Z,49.95
2018-05-01T19:45:33.900Z,50.08
2018-05-01T19:48:02.911Z,50.88
2018-05-01T19:50:31.070Z,50.13
2018-05-01T19:52:59.266Z,51.14
2018-05-01T19:55:27.417Z,51.92
2018-05-01T19:57:55.684Z,51.88
2018-05-01T20:00:23.905Z,51.57
2018-05-01T20:02:52.094Z,51.64
2018-05-01T20:05:20.281Z,52.66
2018-05-01T20:07:48.449Z,53.95
2018-05-01T20:10:16.644Z,54.82
2018-05-01T20:12:44.971Z,56.09
2018-05-01T20:15:13.160Z,56.57
2018-05-01T20:17:41.378Z,56.19
2018-05-01T20:20:09.592Z,57.05
2018-05-01T20:22:37.753Z,56.01
2018-05-01T20:25:05.977Z,55.24
2018-05-01T20:27:34.133Z,54.88
2018-05-01T20:30:02.362Z,53.89
2018-05-01T20:32:30.529Z,53.94
2018-05-01T20:34:58.694Z,54.53
2018-05-01T20:37:26.925Z,54.15
2018-05-01T20:39:55.022Z,53.94
2018-05-01T20:42:23.217Z,54.18
2018-05-01T20:44:51.418Z,55.09
2018-05-01T20:47:19.982Z,55.62
2018-05-01T20:49:48.169Z,55.77
2018-05-01T20:52:16.402Z,55.83
2018-05-01T20:54:44.482Z,57.26
2018-05-01T20:57:12.641Z,57.83
2018-05-01T20:59:40.822Z,58.24
2018-05-01T21:02:09.011Z,57.34
2018-05-01T21:04:37.155Z,56.24
2018-05-01T21:07:05.349Z,54.95
2018-05-01T21:09:33.513Z,53.60
2018-05-01T21:12:01.703Z,53.58
2018-05-01T21:14:29.840Z,52.57
2018-05-01T21:16:58.063Z,52.50
2018-05-01T21:19:26.175Z,51.84
2018-05-01T21:21:54.534Z,52.74
2018-05-01T21:24:22.727Z,52.64
2018-05-01T21:26:50.890Z,51.01
2018-05-01T21:29:19.066Z,51.25
2018-05-01T21:31:47.269Z,50.32
2018-05-01T21:34:15.428Z,50.79
2018-05-01T21:36:43.573Z,50.44
2018-05-01T21:39:11.721Z,50.50
2018-05-01T21:41:39.914Z,49.32
2018-05-01T21:44:08.068Z,49.39
2018-05-01T21:46:36.235Z,47.22
2018-05-01T21:49:04.415Z,46.67
2018-05-01T21:51:32.567Z,46.45
2018-05-01T21:54:00.735Z,47.25
2018-05-01T21:56:28.885Z,47.60
2018-05-01T21:58:57.051Z,46.43
2018-05-01T22:01:25.218Z,46.72
2018-05-01T22:03:53.418Z,47.00
2018-05-01T22:06:21.568Z,47.26
2018-05-01T22:08:49.762Z,47.27
2018-05-01T22:11:17.974Z,47.11
2018-05-01T22:13:46.463Z,47.42
2018-05-01T22:16:14.657Z,47.74
2018-05-01T22:18:42.832Z,48.04
2018-05-01T22:21:11.004Z,48.51
2018-05-01T22:23:39.162Z,48.23
2018-05-01T22:26:07.348Z,48.53
2018-05-01T22:28:35.518Z,48.37
2018-05-01T22:31:03.692Z,48.81
2018-05-01T22:33:31.852Z,48.68
2018-05-01T22:36:00.032Z,49.25
2018-05-01T22:38:28.196Z,49.21
2018-05-01T22:40:56.368Z,49.50
2018-05-01T22:43:24.565Z,49.57
2018-05-01T22:45:52.731Z,49.94
2018-05-01T22:48:20.913Z,50.15
2018-05-01T22:50:49.088Z,50.58
2018-05-01T22:53:17.255Z,51.04
2018-05-01T22:55:45.415Z,50.95
2018-05-01T22:58:13.579Z,51.75
2018-05-01T23:00:41.759Z,51.98
2018-05-01T23:03:10.069Z,52.07
2018-05-01T23:05:38.257Z,53.20
2018-05-01T23:08:06.397Z,54.09
2018-05-01T23:10:34.529Z,55.09
2018-05-01T23:13:02.722Z,55.50
2018-05-01T23:15:30.889Z,56.67
2018-05-01T23:17:59.079Z,56.62
2018-05-01T23:20:27.263Z,57.74
2018-05-01T23:22:55.442Z,57.92
2018-05-01T23:25:23.611Z,58.22
2018-05-01T23:27:51.767Z,58.63
2018-05-01T23:30:19.966Z,58.75
2018-05-01T23:32:48.114Z,59.08
2018-05-01T23:35:16.286Z,59.26
2018-05-01T23:37:44.435Z,59.32
2018-05-01T23:40:12.626Z,59.58
2018-05-01T23:42:40.759Z,60.24
2018-05-01T23:45:08.933Z,60.27
2018-05-01T23:47:37.097Z,60.21
2018-05-01T23:50:05.291Z,60.59
2018-05-01T23:52:33.442Z,60.73
2018-05-01T23:55:01.592Z,61.12
2018-05-01T23:57:29.788Z,61.21
2018-05-01T23:59:57.924Z,61.56
